createdAt,value
2018-07-25T00:00:23.236Z,8.73
2018-07-25T00:02:53.008Z,8.00
2018-07-25T00:05:22.792Z,7.93
2018-07-25T00:07:52.592Z,8.50
2018-07-25T00:10:26.796Z,8.83
2018-07-25T00:12:56.570Z,7.77
2018-07-25T00:15:26.373Z,8.37
2018-07-25T00:17:56.141Z,7.70
2018-07-25T00:20:25.909Z,8.83
2018-07-25T00:22:55.749Z,8.47
2018-07-25T00:25:25.319Z,7.67
2018-07-25T00:27:55.086Z,8.73
2018-07-25T00:30:24.900Z,8.60
2018-07-25T00:32:54.711Z,8.60
2018-07-25T00:35:24.553Z,9.40
2018-07-25T00:37:54.311Z,9.13
2018-07-25T00:40:24.089Z,8.63
2018-07-25T00:42:53.954Z,9.00
2018-07-25T00:45:23.761Z,9.00
2018-07-25T00:47:53.519Z,9.17
2018-07-25T00:50:23.324Z,9.43
2018-07-25T00:52:53.087Z,8.63
2018-07-25T00:55:22.919Z,8.57
2018-07-25T00:57:52.721Z,8.60
2018-07-25T01:00:22.496Z,7.97
2018-07-25T01:02:52.309Z,8.67
2018-07-25T01:05:22.119Z,8.27
2018-07-25T01:07:51.888Z,8.93
2018-07-25T01:10:21.713Z,8.63
2018-07-25T01:12:51.743Z,8.93
2018-07-25T01:15:21.583Z,9.53
2018-07-25T01:17:51.396Z,9.30
2018-07-25T01:20:21.507Z,9.47
2018-07-25T01:22:51.326Z,9.07
2018-07-25T01:25:21.152Z,10.40
2018-07-25T01:27:50.988Z,9.50
2018-07-25T01:30:20.868Z,9.67
2018-07-25T01:32:50.624Z,9.50
2018-07-25T01:35:20.482Z,10.07
2018-07-25T01:37:50.286Z,9.63
2018-07-25T01:40:20.096Z,9.40
2018-07-25T01:42:49.904Z,9.50
2018-07-25T01:45:19.705Z,8.83
2018-07-25T01:47:49.486Z,9.77
2018-07-25T01:50:19.262Z,9.43
2018-07-25T01:52:49.458Z,9.70
2018-07-25T01:55:19.240Z,9.80
2018-07-25T01:57:49.078Z,9.37
2018-07-25T02:00:18.962Z,9.90
2018-07-25T02:02:48.714Z,9.17
2018-07-25T02:05:18.515Z,8.67
2018-07-25T02:07:48.281Z,9.37
2018-07-25T02:10:18.106Z,9.43
2018-07-25T02:12:47.906Z,9.70
2018-07-25T02:15:17.688Z,9.00
2018-07-25T02:17:47.459Z,9.37
2018-07-25T02:20:17.854Z,9.80
2018-07-25T02:22:53.373Z,9.40
2018-07-25T02:25:37.743Z,9.53
2018-07-25T02:28:07.886Z,9.43
2018-07-25T02:30:37.726Z,9.37
2018-07-25T02:33:07.528Z,9.60
2018-07-25T02:35:37.321Z,8.77
2018-07-25T02:38:07.121Z,8.67
2018-07-25T02:40:36.866Z,9.40
2018-07-25T02:43:06.755Z,8.47
2018-07-25T02:45:41.901Z,8.50
2018-07-25T02:48:11.694Z,8.50
2018-07-25T02:50:41.158Z,8.23
2018-07-25T02:53:10.808Z,8.17
2018-07-25T02:55:40.417Z,8.93
2018-07-25T02:58:09.673Z,9.00
2018-07-25T03:00:39.285Z,9.70
2018-07-25T03:03:09.120Z,9.33
2018-07-25T03:05:38.968Z,9.83
2018-07-25T03:08:08.782Z,8.97
2018-07-25T03:10:42.832Z,9.10
2018-07-25T03:13:12.603Z,9.60
2018-07-25T03:15:42.483Z,9.37
2018-07-25T03:18:12.297Z,11.43
2018-07-25T03:20:42.161Z,9.50
2018-07-25T03:23:11.990Z,9.47
2018-07-25T03:25:41.774Z,8.83
2018-07-25T03:28:11.603Z,9.37
2018-07-25T03:30:41.475Z,8.40
2018-07-25T03:33:11.386Z,8.00
2018-07-25T03:35:41.199Z,10.03
2018-07-25T03:38:11.001Z,8.73
2018-07-25T03:40:40.937Z,8.83
2018-07-25T03:43:10.760Z,9.03
2018-07-25T03:45:40.589Z,10.23
2018-07-25T03:48:10.431Z,8.97
2018-07-25T03:50:40.288Z,8.57
2018-07-25T03:53:10.168Z,8.97
2018-07-25T03:55:40.032Z,10.07
2018-07-25T03:58:11.919Z,9.90
2018-07-25T04:00:41.761Z,9.63
2018-07-25T04:03:11.677Z,10.03
2018-07-25T04:05:41.483Z,10.27
2018-07-25T04:08:11.337Z,10.47
2018-07-25T04:10:42.533Z,10.47
2018-07-25T04:13:12.287Z,9.43
2018-07-25T04:15:42.116Z,10.13
2018-07-25T04:18:11.882Z,11.47
2018-07-25T04:20:41.704Z,10.97
2018-07-25T04:23:11.457Z,10.77
2018-07-25T04:25:41.264Z,11.17
2018-07-25T04:28:11.026Z,10.23
2018-07-25T04:30:40.801Z,10.40
2018-07-25T04:33:10.634Z,11.00
2018-07-25T04:35:40.410Z,10.77
2018-07-25T04:38:10.190Z,10.60
2018-07-25T04:40:39.974Z,11.97
2018-07-25T04:43:09.754Z,11.33
2018-07-25T04:45:39.535Z,11.03
2018-07-25T04:48:09.403Z,11.27
2018-07-25T04:50:39.255Z,11.53
2018-07-25T04:53:09.036Z,11.60
2018-07-25T04:55:38.827Z,11.93
2018-07-25T04:58:08.633Z,11.63
2018-07-25T05:00:38.460Z,11.37
2018-07-25T05:03:08.356Z,10.40
2018-07-25T05:05:38.204Z,11.10
2018-07-25T05:08:07.982Z,10.97
2018-07-25T05:10:37.872Z,10.70
2018-07-25T05:13:07.670Z,11.20
2018-07-25T05:15:37.454Z,10.40
2018-07-25T05:18:07.312Z,11.77
2018-07-25T05:20:37.220Z,10.97
2018-07-25T05:23:07.019Z,10.20
2018-07-25T05:25:36.818Z,10.40
2018-07-25T05:28:06.648Z,11.30
2018-07-25T05:30:36.586Z,10.73
2018-07-25T05:33:06.380Z,11.03
2018-07-25T05:35:36.210Z,10.83
2018-07-25T05:38:06.011Z,11.20
2018-07-25T05:40:35.323Z,10.47
2018-07-25T05:43:05.166Z,10.90
2018-07-25T05:45:34.975Z,10.23
2018-07-25T05:48:04.814Z,10.43
2018-07-25T05:50:34.654Z,11.27
2018-07-25T05:53:04.521Z,12.63
2018-07-25T05:55:34.311Z,10.57
2018-07-25T05:58:03.911Z,10.90
2018-07-25T06:00:33.537Z,10.77
2018-07-25T06:03:03.279Z,10.07
2018-07-25T06:05:32.802Z,10.53
2018-07-25T06:08:02.665Z,11.30
2018-07-25T06:10:32.656Z,10.43
2018-07-25T06:13:02.466Z,10.67
2018-07-25T06:15:32.263Z,9.70
2018-07-25T06:18:02.058Z,9.30
2018-07-25T06:20:31.881Z,10.47
2018-07-25T06:23:01.652Z,9.70
2018-07-25T06:25:31.631Z,8.77
2018-07-25T06:28:03.998Z,10.40
2018-07-25T06:30:33.770Z,10.20
2018-07-25T06:33:03.794Z,9.30
2018-07-25T06:35:34.061Z,9.30
2018-07-25T06:38:03.908Z,9.60
2018-07-25T06:40:33.651Z,9.53
2018-07-25T06:43:03.401Z,9.30
2018-07-25T06:45:33.160Z,9.60
2018-07-25T06:48:03.057Z,9.70
2018-07-25T06:50:32.872Z,10.50
2018-07-25T06:53:02.642Z,9.13
2018-07-25T06:55:32.463Z,9.83
2018-07-25T06:58:02.280Z,9.83
2018-07-25T07:00:32.447Z,9.20
2018-07-25T07:03:02.239Z,8.90
2018-07-25T07:05:32.004Z,9.67
2018-07-25T07:08:01.884Z,8.73
2018-07-25T07:10:31.669Z,8.50
2018-07-25T07:13:01.450Z,10.10
2018-07-25T07:15:31.315Z,9.13
2018-07-25T07:18:01.096Z,9.87
2018-07-25T07:20:30.892Z,10.60
2018-07-25T07:23:00.664Z,8.87
2018-07-25T07:25:30.436Z,8.70
2018-07-25T07:28:00.207Z,8.57
2018-07-25T07:30:30.037Z,9.03
2018-07-25T07:33:00.877Z,10.63
2018-07-25T07:35:30.891Z,9.10
2018-07-25T07:38:00.960Z,8.97
2018-07-25T07:40:30.924Z,11.33
2018-07-25T07:43:00.712Z,8.70
2018-07-25T07:45:30.497Z,13.03
2018-07-25T07:48:00.379Z,21.53
2018-07-25T07:50:30.155Z,13.23
2018-07-25T07:52:59.961Z,10.53
2018-07-25T07:55:29.785Z,9.37
2018-07-25T07:58:00.734Z,10.77
2018-07-25T08:00:30.582Z,10.87
2018-07-25T08:03:00.373Z,12.73
2018-07-25T08:05:30.177Z,9.97
2018-07-25T08:08:00.037Z,9.20
2018-07-25T08:10:29.914Z,9.33
2018-07-25T08:12:59.801Z,8.20
2018-07-25T08:15:29.539Z,8.47
2018-07-25T08:17:59.423Z,9.53
2018-07-25T08:20:29.152Z,10.00
2018-07-25T08:22:59.925Z,9.33
2018-07-25T08:25:36.897Z,9.10
2018-07-25T08:28:06.866Z,9.33
2018-07-25T08:30:36.657Z,11.03
2018-07-25T08:33:06.438Z,9.17
2018-07-25T08:35:36.289Z,8.50
2018-07-25T08:38:07.568Z,8.40
2018-07-25T08:40:37.538Z,8.13
2018-07-25T08:43:07.332Z,7.83
2018-07-25T08:45:39.462Z,7.73
2018-07-25T08:48:09.294Z,7.50
2018-07-25T08:50:39.053Z,8.50
2018-07-25T08:53:09.023Z,8.13
2018-07-25T08:55:39.002Z,8.87
2018-07-25T08:58:08.822Z,10.07
2018-07-25T09:00:38.574Z,7.80
2018-07-25T09:03:08.382Z,8.60
2018-07-25T09:05:38.338Z,11.23
2018-07-25T09:08:08.113Z,8.77
2018-07-25T09:10:37.962Z,8.67
2018-07-25T09:13:07.844Z,8.03
2018-07-25T09:15:37.661Z,8.20
2018-07-25T09:18:08.401Z,9.33
2018-07-25T09:20:38.302Z,9.45
2018-07-25T09:23:08.115Z,7.30
2018-07-25T09:25:37.996Z,7.20
2018-07-25T09:28:07.862Z,7.80
2018-07-25T09:30:37.801Z,7.50
2018-07-25T09:33:07.668Z,6.87
2018-07-25T09:35:37.520Z,7.83
2018-07-25T09:38:07.331Z,7.92
2018-07-25T09:40:37.099Z,6.60
2018-07-25T09:43:06.964Z,6.92
2018-07-25T09:45:36.769Z,7.53
2018-07-25T09:48:06.682Z,7.70
2018-07-25T09:50:36.536Z,6.95
2018-07-25T09:53:06.462Z,8.20
2018-07-25T09:55:36.261Z,6.28
2018-07-25T09:58:06.756Z,6.65
2018-07-25T10:00:41.933Z,6.67
2018-07-25T10:03:11.772Z,7.05
2018-07-25T10:05:41.598Z,7.85
2018-07-25T10:08:11.517Z,7.05
2018-07-25T10:10:41.536Z,7.20
2018-07-25T10:13:11.386Z,7.28
2018-07-25T10:15:41.278Z,8.78
2018-07-25T10:18:12.610Z,6.83
2018-07-25T10:20:42.505Z,7.92
2018-07-25T10:23:12.404Z,10.70
2018-07-25T10:25:42.305Z,7.50
2018-07-25T10:28:13.565Z,6.92
2018-07-25T10:30:44.524Z,6.47
2018-07-25T10:33:14.478Z,8.25
2018-07-25T10:35:44.317Z,7.00
2018-07-25T10:38:14.090Z,7.45
2018-07-25T10:40:43.888Z,6.30
2018-07-25T10:43:13.690Z,5.75
2018-07-25T10:45:43.516Z,9.48
2018-07-25T10:48:13.272Z,6.17
2018-07-25T10:50:43.051Z,5.40
2018-07-25T10:53:12.838Z,8.80
2018-07-25T10:55:42.658Z,6.25
2018-07-25T10:58:12.517Z,6.37
2018-07-25T11:00:42.323Z,6.00
2018-07-25T11:03:12.117Z,6.95
2018-07-25T11:05:48.362Z,6.70
2018-07-25T11:08:18.166Z,6.08
2018-07-25T11:10:47.964Z,7.08
2018-07-25T11:13:17.731Z,7.30
2018-07-25T11:15:47.589Z,6.83
2018-07-25T11:18:17.486Z,6.97
2018-07-25T11:20:47.392Z,6.85
2018-07-25T11:23:19.035Z,6.60
2018-07-25T11:25:50.153Z,7.72
2018-07-25T11:28:19.994Z,7.80
2018-07-25T11:30:49.839Z,7.30
2018-07-25T11:33:19.921Z,7.65
2018-07-25T11:35:50.021Z,6.83
2018-07-25T11:38:19.514Z,7.20
2018-07-25T11:40:49.091Z,7.70
2018-07-25T11:43:19.031Z,5.53
2018-07-25T11:45:48.778Z,6.00
2018-07-25T11:48:19.077Z,6.00
2018-07-25T11:50:48.608Z,5.87
2018-07-25T11:53:18.636Z,5.87
2018-07-25T11:55:48.623Z,5.42
2018-07-25T11:58:18.322Z,5.67
2018-07-25T12:00:48.118Z,7.75
2018-07-25T12:03:17.949Z,6.00
2018-07-25T12:05:47.519Z,7.17
2018-07-25T12:08:17.140Z,9.20
2018-07-25T12:10:46.944Z,8.03
2018-07-25T12:13:16.767Z,7.78
2018-07-25T12:15:46.548Z,6.80
2018-07-25T12:18:16.447Z,7.28
2018-07-25T12:20:46.362Z,5.95
2018-07-25T12:23:16.150Z,6.62
2018-07-25T12:25:45.965Z,6.85
2018-07-25T12:28:15.946Z,5.97
2018-07-25T12:30:45.779Z,5.87
2018-07-25T12:33:15.742Z,6.00
2018-07-25T12:35:45.657Z,5.28
2018-07-25T12:38:15.768Z,5.50
2018-07-25T12:40:52.107Z,5.20
2018-07-25T12:43:21.937Z,5.28
2018-07-25T12:45:51.742Z,4.70
2018-07-25T12:48:21.621Z,4.85
2018-07-25T12:50:51.410Z,6.28
2018-07-25T12:53:21.354Z,4.97
2018-07-25T12:55:51.142Z,4.85
2018-07-25T12:58:20.958Z,6.05
2018-07-25T13:00:50.796Z,5.22
2018-07-25T13:03:20.691Z,4.37
2018-07-25T13:05:50.509Z,7.12
2018-07-25T13:08:20.425Z,4.40
2018-07-25T13:10:50.222Z,4.50
2018-07-25T13:13:20.077Z,4.92
2018-07-25T13:15:56.421Z,4.95
2018-07-25T13:18:26.196Z,5.50
2018-07-25T13:20:56.005Z,5.00
2018-07-25T13:23:25.752Z,6.50
2018-07-25T13:25:55.656Z,6.10
2018-07-25T13:28:25.482Z,5.92
2018-07-25T13:30:55.195Z,5.95
2018-07-25T13:33:25.209Z,6.67
2018-07-25T13:35:55.058Z,7.40
2018-07-25T13:38:24.817Z,7.90
2018-07-25T13:40:54.643Z,7.70
2018-07-25T13:43:24.514Z,7.30
2018-07-25T13:45:54.358Z,7.72
2018-07-25T13:48:24.220Z,7.85
2018-07-25T13:50:54.066Z,7.87
2018-07-25T13:53:23.888Z,6.83
2018-07-25T13:55:53.710Z,5.92
2018-07-25T13:58:23.588Z,6.62
2018-07-25T14:00:53.378Z,5.33
2018-07-25T14:03:23.175Z,5.78
2018-07-25T14:05:52.985Z,5.15
2018-07-25T14:08:22.805Z,5.45
2018-07-25T14:10:52.599Z,5.30
2018-07-25T14:13:22.524Z,5.40
2018-07-25T14:15:52.381Z,5.00
2018-07-25T14:18:22.232Z,6.05
2018-07-25T14:20:52.248Z,5.35
2018-07-25T14:23:22.023Z,4.78
2018-07-25T14:25:51.879Z,5.42
2018-07-25T14:28:21.688Z,8.48
2018-07-25T14:30:51.601Z,6.30
2018-07-25T14:33:21.406Z,5.45
2018-07-25T14:35:51.210Z,5.90
2018-07-25T14:38:21.051Z,5.45
2018-07-25T14:40:50.870Z,5.65
2018-07-25T14:43:20.720Z,5.42
2018-07-25T14:45:50.502Z,4.90
2018-07-25T14:48:20.338Z,5.20
2018-07-25T14:50:50.254Z,5.47
2018-07-25T14:53:20.082Z,5.25
2018-07-25T14:55:49.880Z,5.28
2018-07-25T14:58:19.728Z,5.50
2018-07-25T15:00:50.552Z,6.17
2018-07-25T15:03:20.513Z,5.90
2018-07-25T15:05:50.332Z,4.80
2018-07-25T15:08:20.173Z,4.70
2018-07-25T15:10:49.972Z,8.50
2018-07-25T15:13:19.784Z,4.70
2018-07-25T15:15:49.652Z,4.62
2018-07-25T15:18:19.430Z,5.12
2018-07-25T15:20:49.454Z,9.13
2018-07-25T15:23:30.689Z,4.40
2018-07-25T15:26:00.482Z,4.87
2018-07-25T15:28:30.305Z,4.70
2018-07-25T15:31:01.063Z,4.78
2018-07-25T15:33:32.495Z,4.62
2018-07-25T15:36:02.394Z,4.40
2018-07-25T15:38:32.224Z,4.30
2018-07-25T15:41:02.183Z,5.67
2018-07-25T15:43:32.089Z,4.25
2018-07-25T15:46:01.972Z,4.53
2018-07-25T15:48:31.754Z,4.17
2018-07-25T15:51:02.593Z,4.35
2018-07-25T15:53:32.462Z,4.80
2018-07-25T15:56:02.342Z,4.60
2018-07-25T15:58:32.127Z,4.90
2018-07-25T16:01:01.978Z,4.22
2018-07-25T16:03:31.821Z,4.45
2018-07-25T16:06:01.694Z,4.75
2018-07-25T16:08:31.484Z,4.70
2018-07-25T16:11:01.402Z,5.20
2018-07-25T16:13:31.137Z,4.55
2018-07-25T16:16:00.927Z,5.62
2018-07-25T16:18:30.769Z,4.50
2018-07-25T16:21:00.624Z,7.00
2018-07-25T16:23:30.492Z,4.70
2018-07-25T16:25:59.975Z,4.20
2018-07-25T16:28:29.580Z,4.65
2018-07-25T16:30:59.751Z,4.25
2018-07-25T16:33:29.572Z,4.25
2018-07-25T16:35:59.375Z,4.15
2018-07-25T16:38:29.180Z,4.35
2018-07-25T16:40:59.136Z,4.70
2018-07-25T16:43:30.321Z,4.28
2018-07-25T16:46:00.242Z,4.95
2018-07-25T16:48:30.009Z,4.25
2018-07-25T16:50:59.866Z,4.08
2018-07-25T16:53:29.651Z,4.15
2018-07-25T16:55:59.509Z,4.60
2018-07-25T16:58:29.337Z,5.42
2018-07-25T17:00:59.224Z,5.67
2018-07-25T17:03:29.034Z,4.78
2018-07-25T17:05:58.841Z,5.05
2018-07-25T17:08:28.667Z,4.95
2018-07-25T17:10:58.466Z,5.40
2018-07-25T17:13:28.281Z,4.40
2018-07-25T17:15:58.079Z,4.50
2018-07-25T17:18:27.865Z,5.47
2018-07-25T17:20:57.704Z,5.42
2018-07-25T17:23:27.469Z,6.30
2018-07-25T17:25:57.301Z,14.90
2018-07-25T17:28:27.115Z,6.87
2018-07-25T17:30:57.034Z,6.92
2018-07-25T17:33:26.920Z,11.30
2018-07-25T17:35:56.835Z,6.75
2018-07-25T17:38:26.652Z,7.75
2018-07-25T17:40:56.696Z,7.92
2018-07-25T17:43:26.500Z,8.00
2018-07-25T17:45:56.302Z,6.85
2018-07-25T17:48:26.279Z,4.53
2018-07-25T17:50:56.240Z,4.58
2018-07-25T17:53:26.085Z,5.80
2018-07-25T17:55:55.899Z,4.87
2018-07-25T17:58:25.916Z,5.28
2018-07-25T18:00:55.730Z,4.92
2018-07-25T18:03:25.706Z,6.25
2018-07-25T18:05:55.499Z,5.53
2018-07-25T18:08:25.312Z,4.85
2018-07-25T18:10:55.186Z,5.78
2018-07-25T18:13:30.423Z,4.53
2018-07-25T18:16:00.243Z,5.17
2018-07-25T18:18:30.032Z,4.08
2018-07-25T18:21:00.377Z,4.05
2018-07-25T18:23:30.188Z,3.40
2018-07-25T18:26:00.031Z,5.20
2018-07-25T18:28:29.872Z,5.80
2018-07-25T18:30:59.719Z,4.72
2018-07-25T18:33:29.891Z,4.85
2018-07-25T18:35:59.397Z,3.30
2018-07-25T18:38:29.055Z,3.62
2018-07-25T18:40:58.886Z,4.05
2018-07-25T18:43:28.706Z,3.87
2018-07-25T18:45:58.519Z,4.50
2018-07-25T18:48:28.313Z,6.90
2018-07-25T18:50:58.113Z,4.75
2018-07-25T18:53:27.907Z,3.20
2018-07-25T18:55:57.823Z,5.80
2018-07-25T18:58:27.722Z,4.35
2018-07-25T19:00:57.680Z,3.65
2018-07-25T19:03:27.493Z,4.55
2018-07-25T19:05:57.322Z,6.10
2018-07-25T19:08:27.144Z,3.98
2018-07-25T19:10:59.912Z,7.10
2018-07-25T19:13:42.150Z,4.95
2018-07-25T19:16:11.938Z,4.00
2018-07-25T19:18:41.799Z,3.45
2018-07-25T19:21:11.571Z,4.92
2018-07-25T19:23:41.385Z,3.85
2018-07-25T19:26:11.238Z,6.40
2018-07-25T19:28:41.040Z,3.20
2018-07-25T19:31:10.897Z,4.60
2018-07-25T19:33:40.735Z,3.90
2018-07-25T19:36:10.616Z,3.12
2018-07-25T19:38:40.471Z,3.45
2018-07-25T19:41:10.283Z,3.33
2018-07-25T19:43:40.075Z,3.77
2018-07-25T19:46:09.921Z,7.17
2018-07-25T19:48:39.697Z,4.60
2018-07-25T19:51:09.191Z,6.30
2018-07-25T19:53:38.765Z,3.65
2018-07-25T19:56:08.581Z,6.05
2018-07-25T19:58:38.544Z,6.42
2018-07-25T20:01:08.412Z,7.17
2018-07-25T20:03:38.234Z,3.92
2018-07-25T20:06:08.063Z,4.95
2018-07-25T20:08:37.877Z,5.12
2018-07-25T20:11:08.058Z,3.95
2018-07-25T20:13:42.063Z,6.20
2018-07-25T20:16:11.877Z,5.22
2018-07-25T20:18:41.708Z,6.65
2018-07-25T20:21:11.701Z,5.55
2018-07-25T20:23:41.603Z,3.15
2018-07-25T20:26:11.415Z,5.25
2018-07-25T20:28:41.227Z,5.55
2018-07-25T20:31:11.031Z,4.70
2018-07-25T20:33:40.841Z,4.83
2018-07-25T20:36:10.717Z,5.10
2018-07-25T20:38:40.531Z,5.05
2018-07-25T20:41:10.344Z,3.10
2018-07-25T20:43:40.174Z,5.30
2018-07-25T20:46:09.979Z,3.58
2018-07-25T20:48:39.760Z,3.80
2018-07-25T20:51:09.612Z,5.62
2018-07-25T20:53:39.444Z,3.60
2018-07-25T20:56:09.287Z,3.55
2018-07-25T20:58:39.068Z,4.05
2018-07-25T21:01:08.913Z,6.33
2018-07-25T21:03:38.794Z,3.75
2018-07-25T21:06:08.570Z,5.73
2018-07-25T21:08:38.352Z,6.77
2018-07-25T21:11:08.438Z,4.43
2018-07-25T21:13:38.215Z,4.27
2018-07-25T21:16:08.097Z,4.90
2018-07-25T21:18:37.567Z,4.93
2018-07-25T21:21:07.398Z,5.43
2018-07-25T21:23:37.202Z,6.27
2018-07-25T21:26:07.051Z,4.73
2018-07-25T21:28:36.844Z,4.73
2018-07-25T21:31:06.651Z,5.80
2018-07-25T21:33:36.518Z,6.47
2018-07-25T21:36:06.367Z,5.53
2018-07-25T21:38:36.114Z,5.93
2018-07-25T21:41:05.893Z,6.43
2018-07-25T21:43:35.656Z,6.80
2018-07-25T21:46:05.488Z,4.90
2018-07-25T21:48:35.036Z,7.33
2018-07-25T21:51:04.748Z,8.00
2018-07-25T21:53:34.621Z,6.93
2018-07-25T21:56:04.492Z,7.90
2018-07-25T21:58:34.302Z,6.73
2018-07-25T22:01:10.525Z,6.00
2018-07-25T22:03:41.009Z,6.67
2018-07-25T22:06:13.514Z,6.50
2018-07-25T22:08:43.733Z,5.87
2018-07-25T22:11:13.517Z,5.73
2018-07-25T22:13:48.695Z,5.57
2018-07-25T22:16:18.661Z,6.70
2018-07-25T22:18:48.600Z,6.53
2018-07-25T22:21:18.204Z,5.40
2018-07-25T22:23:47.827Z,5.90
2018-07-25T22:26:17.603Z,5.00
2018-07-25T22:28:47.439Z,6.17
2018-07-25T22:31:17.296Z,7.63
2018-07-25T22:33:47.136Z,5.20
2018-07-25T22:36:16.956Z,5.50
2018-07-25T22:38:46.746Z,7.93
2018-07-25T22:41:16.528Z,6.43
2018-07-25T22:43:46.302Z,8.40
2018-07-25T22:46:16.152Z,5.37
2018-07-25T22:48:46.390Z,5.60
2018-07-25T22:51:16.189Z,6.10
2018-07-25T22:53:46.025Z,5.20
2018-07-25T22:56:15.854Z,6.33
2018-07-25T22:58:45.699Z,5.90
2018-07-25T23:01:15.545Z,6.50
2018-07-25T23:03:45.377Z,5.90
2018-07-25T23:06:15.508Z,5.00
2018-07-25T23:08:45.300Z,9.57
2018-07-25T23:11:15.101Z,7.73
2018-07-25T23:13:47.503Z,6.80
2018-07-25T23:16:17.710Z,8.00
2018-07-25T23:18:47.657Z,7.00
2018-07-25T23:21:17.482Z,7.27
2018-07-25T23:23:47.252Z,6.30
2018-07-25T23:26:17.071Z,5.30
2018-07-25T23:28:46.813Z,7.27
2018-07-25T23:31:16.607Z,5.60
2018-07-25T23:33:46.131Z,6.03
2018-07-25T23:36:15.744Z,7.80
2018-07-25T23:38:45.522Z,4.73
2018-07-25T23:41:15.348Z,5.47
2018-07-25T23:43:45.136Z,5.00
2018-07-25T23:46:14.955Z,5.13
2018-07-25T23:48:44.713Z,5.63
2018-07-25T23:51:14.598Z,6.07
2018-07-25T23:53:44.398Z,6.17
2018-07-25T23:56:14.245Z,5.33
2018-07-25T23:58:44.044Z,5.30
